sensor_id;sensor_type;location;lat;lon;timestamp;P1;durP1;ratioP1;P2;durP2;ratioP2
11877;SDS011;5998;42.676;23.268;2023-05-07T00:02:18;9.77;;;8.27;;
11877;SDS011;5998;42.676;23.268;2023-05-07T00:04:44;13.13;;;9.87;;
11877;SDS011;5998;42.676;23.268;2023-05-07T00:07:10;14.13;;;9.73;;
11877;SDS011;5998;42.676;23.268;2023-05-07T00:09:37;11.63;;;9.50;;
11877;SDS011;5998;42.676;23.268;2023-05-07T00:12:03;10.83;;;9.67;;
11877;SDS011;5998;42.676;23.268;2023-05-07T00:14:31;12.03;;;9.63;;
11877;SDS011;5998;42.676;23.268;2023-05-07T00:16:58;10.33;;;8.10;;
11877;SDS011;5998;42.676;23.268;2023-05-07T00:19:24;9.07;;;8.10;;
11877;SDS011;5998;42.676;23.268;2023-05-07T00:21:51;8.57;;;7.33;;
11877;SDS011;5998;42.676;23.268;2023-05-07T00:24:18;9.07;;;7.77;;
11877;SDS011;5998;42.676;23.268;2023-05-07T00:26:45;7.73;;;6.93;;
11877;SDS011;5998;42.676;23.268;2023-05-07T00:29:11;12.73;;;7.23;;
11877;SDS011;5998;42.676;23.268;2023-05-07T00:31:39;8.00;;;6.90;;
11877;SDS011;5998;42.676;23.268;2023-05-07T00:34:05;9.33;;;7.63;;
11877;SDS011;5998;42.676;23.268;2023-05-07T00:36:32;8.43;;;6.60;;
11877;SDS011;5998;42.676;23.268;2023-05-07T00:38:59;8.30;;;6.80;;
11877;SDS011;5998;42.676;23.268;2023-05-07T00:41:25;7.43;;;6.47;;
11877;SDS011;5998;42.676;23.268;2023-05-07T00:43:52;8.17;;;7.03;;
11877;SDS011;5998;42.676;23.268;2023-05-07T00:46:18;14.63;;;7.43;;
11877;SDS011;5998;42.676;23.268;2023-05-07T00:48:47;9.97;;;6.73;;
11877;SDS011;5998;42.676;23.268;2023-05-07T00:51:14;9.03;;;6.20;;
11877;SDS011;5998;42.676;23.268;2023-05-07T00:53:40;10.50;;;6.67;;
11877;SDS011;5998;42.676;23.268;2023-05-07T00:56:07;7.10;;;6.40;;
11877;SDS011;5998;42.676;23.268;2023-05-07T00:58:33;6.47;;;5.77;;
11877;SDS011;5998;42.676;23.268;2023-05-07T01:01:00;7.37;;;6.40;;
11877;SDS011;5998;42.676;23.268;2023-05-07T01:03:26;7.07;;;5.40;;
11877;SDS011;5998;42.676;23.268;2023-05-07T01:05:54;8.27;;;6.20;;
11877;SDS011;5998;42.676;23.268;2023-05-07T01:08:21;6.50;;;5.73;;
11877;SDS011;5998;42.676;23.268;2023-05-07T01:10:49;7.40;;;6.60;;
11877;SDS011;5998;42.676;23.268;2023-05-07T01:13:17;6.40;;;5.60;;
11877;SDS011;5998;42.676;23.268;2023-05-07T01:15:44;6.23;;;5.73;;
11877;SDS011;5998;42.676;23.268;2023-05-07T01:18:10;7.17;;;5.97;;
11877;SDS011;5998;42.676;23.268;2023-05-07T01:20:37;6.33;;;5.73;;
11877;SDS011;5998;42.676;23.268;2023-05-07T01:23:05;8.40;;;6.43;;
11877;SDS011;5998;42.676;23.268;2023-05-07T01:25:32;10.60;;;6.47;;
11877;SDS011;5998;42.676;23.268;2023-05-07T01:27:58;9.10;;;6.30;;
11877;SDS011;5998;42.676;23.268;2023-05-07T01:30:26;7.37;;;6.67;;
11877;SDS011;5998;42.676;23.268;2023-05-07T01:32:56;7.20;;;5.83;;
11877;SDS011;5998;42.676;23.268;2023-05-07T01:35:24;6.60;;;5.83;;
11877;SDS011;5998;42.676;23.268;2023-05-07T01:37:51;9.47;;;6.07;;
11877;SDS011;5998;42.676;23.268;2023-05-07T01:40:19;7.13;;;5.87;;
11877;SDS011;5998;42.676;23.268;2023-05-07T01:42:45;8.43;;;5.90;;
11877;SDS011;5998;42.676;23.268;2023-05-07T01:45:13;8.10;;;6.30;;
11877;SDS011;5998;42.676;23.268;2023-05-07T01:47:39;8.03;;;5.97;;
11877;SDS011;5998;42.676;23.268;2023-05-07T01:50:06;7.40;;;6.07;;
11877;SDS011;5998;42.676;23.268;2023-05-07T01:52:35;8.07;;;5.80;;
11877;SDS011;5998;42.676;23.268;2023-05-07T01:55:02;7.20;;;6.07;;
11877;SDS011;5998;42.676;23.268;2023-05-07T01:57:30;8.80;;;6.70;;
11877;SDS011;5998;42.676;23.268;2023-05-07T01:59:58;8.27;;;6.43;;
11877;SDS011;5998;42.676;23.268;2023-05-07T02:02:24;9.33;;;6.40;;
11877;SDS011;5998;42.676;23.268;2023-05-07T02:04:50;8.50;;;6.27;;
11877;SDS011;5998;42.676;23.268;2023-05-07T02:07:17;6.17;;;5.37;;
11877;SDS011;5998;42.676;23.268;2023-05-07T02:09:43;8.70;;;6.50;;
11877;SDS011;5998;42.676;23.268;2023-05-07T02:12:10;6.90;;;6.20;;
11877;SDS011;5998;42.676;23.268;2023-05-07T02:14:37;6.97;;;6.27;;
11877;SDS011;5998;42.676;23.268;2023-05-07T02:17:04;16.70;;;6.47;;
11877;SDS011;5998;42.676;23.268;2023-05-07T02:19:31;8.63;;;6.70;;
11877;SDS011;5998;42.676;23.268;2023-05-07T02:21:57;14.27;;;7.13;;
11877;SDS011;5998;42.676;23.268;2023-05-07T02:24:23;8.37;;;6.40;;
11877;SDS011;5998;42.676;23.268;2023-05-07T02:26:50;7.77;;;6.80;;
11877;SDS011;5998;42.676;23.268;2023-05-07T02:29:16;13.77;;;7.43;;
11877;SDS011;5998;42.676;23.268;2023-05-07T02:31:44;10.40;;;6.83;;
11877;SDS011;5998;42.676;23.268;2023-05-07T02:34:11;7.97;;;6.97;;
11877;SDS011;5998;42.676;23.268;2023-05-07T02:36:37;9.13;;;6.50;;
11877;SDS011;5998;42.676;23.268;2023-05-07T02:39:03;9.03;;;7.93;;
11877;SDS011;5998;42.676;23.268;2023-05-07T02:41:30;8.23;;;7.33;;
11877;SDS011;5998;42.676;23.268;2023-05-07T02:43:57;8.73;;;7.80;;
11877;SDS011;5998;42.676;23.268;2023-05-07T02:46:23;9.33;;;7.87;;
11877;SDS011;5998;42.676;23.268;2023-05-07T02:48:51;10.03;;;7.63;;
11877;SDS011;5998;42.676;23.268;2023-05-07T02:51:19;8.27;;;6.87;;
11877;SDS011;5998;42.676;23.268;2023-05-07T02:53:46;8.40;;;7.07;;
11877;SDS011;5998;42.676;23.268;2023-05-07T02:56:13;10.47;;;7.17;;
11877;SDS011;5998;42.676;23.268;2023-05-07T02:58:39;7.70;;;6.87;;
11877;SDS011;5998;42.676;23.268;2023-05-07T03:01:07;7.93;;;7.13;;
11877;SDS011;5998;42.676;23.268;2023-05-07T03:03:34;8.50;;;7.27;;
11877;SDS011;5998;42.676;23.268;2023-05-07T03:06:02;9.80;;;7.37;;
11877;SDS011;5998;42.676;23.268;2023-05-07T03:08:28;9.43;;;8.13;;
11877;SDS011;5998;42.676;23.268;2023-05-07T03:10:55;10.17;;;7.70;;
11877;SDS011;5998;42.676;23.268;2023-05-07T03:13:21;9.70;;;7.93;;
11877;SDS011;5998;42.676;23.268;2023-05-07T03:15:48;10.73;;;7.77;;
11877;SDS011;5998;42.676;23.268;2023-05-07T03:18:14;11.17;;;7.63;;
11877;SDS011;5998;42.676;23.268;2023-05-07T03:20:41;8.57;;;7.13;;
11877;SDS011;5998;42.676;23.268;2023-05-07T03:23:09;11.03;;;8.00;;
11877;SDS011;5998;42.676;23.268;2023-05-07T03:25:35;11.00;;;8.03;;
11877;SDS011;5998;42.676;23.268;2023-05-07T03:28:01;10.00;;;7.60;;
11877;SDS011;5998;42.676;23.268;2023-05-07T03:30:28;11.20;;;8.37;;
11877;SDS011;5998;42.676;23.268;2023-05-07T03:32:54;12.50;;;8.30;;
11877;SDS011;5998;42.676;23.268;2023-05-07T03:35:21;14.23;;;7.83;;
11877;SDS011;5998;42.676;23.268;2023-05-07T03:37:47;10.70;;;8.03;;
11877;SDS011;5998;42.676;23.268;2023-05-07T03:40:16;10.17;;;7.93;;
11877;SDS011;5998;42.676;23.268;2023-05-07T03:42:42;10.37;;;8.20;;
11877;SDS011;5998;42.676;23.268;2023-05-07T03:45:09;8.40;;;7.60;;
11877;SDS011;5998;42.676;23.268;2023-05-07T03:47:35;14.07;;;8.00;;
11877;SDS011;5998;42.676;23.268;2023-05-07T03:50:02;14.80;;;8.07;;
11877;SDS011;5998;42.676;23.268;2023-05-07T03:52:28;8.07;;;7.33;;
11877;SDS011;5998;42.676;23.268;2023-05-07T03:54:55;7.77;;;6.80;;
11877;SDS011;5998;42.676;23.268;2023-05-07T03:57:22;7.73;;;6.33;;
11877;SDS011;5998;42.676;23.268;2023-05-07T03:59:49;9.97;;;7.13;;
11877;SDS011;5998;42.676;23.268;2023-05-07T04:02:16;11.00;;;7.07;;
11877;SDS011;5998;42.676;23.268;2023-05-07T04:04:42;12.63;;;6.73;;
11877;SDS011;5998;42.676;23.268;2023-05-07T04:07:09;10.03;;;7.03;;
11877;SDS011;5998;42.676;23.268;2023-05-07T04:09:35;10.60;;;7.20;;
11877;SDS011;5998;42.676;23.268;2023-05-07T04:12:02;9.73;;;7.20;;
11877;SDS011;5998;42.676;23.268;2023-05-07T04:14:30;12.03;;;7.13;;
11877;SDS011;5998;42.676;23.268;2023-05-07T04:16:57;9.10;;;7.57;;
11877;SDS011;5998;42.676;23.268;2023-05-07T04:19:23;9.80;;;8.00;;
11877;SDS011;5998;42.676;23.268;2023-05-07T04:21:50;10.70;;;8.40;;
11877;SDS011;5998;42.676;23.268;2023-05-07T04:24:16;8.93;;;7.67;;
11877;SDS011;5998;42.676;23.268;2023-05-07T04:26:43;9.67;;;8.03;;
11877;SDS011;5998;42.676;23.268;2023-05-07T04:29:09;12.37;;;8.30;;
11877;SDS011;5998;42.676;23.268;2023-05-07T04:31:37;10.13;;;8.03;;
11877;SDS011;5998;42.676;23.268;2023-05-07T04:34:04;9.57;;;8.13;;
11877;SDS011;5998;42.676;23.268;2023-05-07T04:36:31;11.30;;;8.67;;
11877;SDS011;5998;42.676;23.268;2023-05-07T04:38:58;10.63;;;8.27;;
11877;SDS011;5998;42.676;23.268;2023-05-07T04:41:25;17.43;;;8.87;;
11877;SDS011;5998;42.676;23.268;2023-05-07T04:43:51;10.17;;;8.83;;
11877;SDS011;5998;42.676;23.268;2023-05-07T04:46:18;12.00;;;8.73;;
11877;SDS011;5998;42.676;23.268;2023-05-07T04:48:46;10.47;;;8.40;;
11877;SDS011;5998;42.676;23.268;2023-05-07T04:51:12;10.80;;;7.70;;
11877;SDS011;5998;42.676;23.268;2023-05-07T04:53:38;12.17;;;7.53;;
11877;SDS011;5998;42.676;23.268;2023-05-07T04:56:05;8.73;;;7.50;;
11877;SDS011;5998;42.676;23.268;2023-05-07T04:58:32;8.90;;;7.87;;
11877;SDS011;5998;42.676;23.268;2023-05-07T05:00:58;13.23;;;7.73;;
11877;SDS011;5998;42.676;23.268;2023-05-07T05:03:25;8.93;;;7.80;;
11877;SDS011;5998;42.676;23.268;2023-05-07T05:05:53;9.07;;;8.23;;
11877;SDS011;5998;42.676;23.268;2023-05-07T05:08:19;9.73;;;7.30;;
11877;SDS011;5998;42.676;23.268;2023-05-07T05:10:45;9.70;;;7.87;;
11877;SDS011;5998;42.676;23.268;2023-05-07T05:13:13;8.53;;;7.50;;
11877;SDS011;5998;42.676;23.268;2023-05-07T05:15:40;8.53;;;7.60;;
11877;SDS011;5998;42.676;23.268;2023-05-07T05:18:06;9.47;;;7.57;;
11877;SDS011;5998;42.676;23.268;2023-05-07T05:20:33;8.83;;;7.33;;
11877;SDS011;5998;42.676;23.268;2023-05-07T05:23:00;10.17;;;7.80;;
11877;SDS011;5998;42.676;23.268;2023-05-07T05:25:27;10.50;;;7.70;;
11877;SDS011;5998;42.676;23.268;2023-05-07T05:27:54;8.67;;;7.07;;
11877;SDS011;5998;42.676;23.268;2023-05-07T05:30:20;9.13;;;7.67;;
11877;SDS011;5998;42.676;23.268;2023-05-07T05:32:46;10.67;;;7.90;;
11877;SDS011;5998;42.676;23.268;2023-05-07T05:35:13;8.50;;;7.63;;
11877;SDS011;5998;42.676;23.268;2023-05-07T05:37:40;8.33;;;7.50;;
11877;SDS011;5998;42.676;23.268;2023-05-07T05:40:09;9.10;;;8.10;;
11877;SDS011;5998;42.676;23.268;2023-05-07T05:42:35;8.63;;;7.67;;
11877;SDS011;5998;42.676;23.268;2023-05-07T05:45:02;8.50;;;7.37;;
11877;SDS011;5998;42.676;23.268;2023-05-07T05:47:29;7.97;;;7.17;;
11877;SDS011;5998;42.676;23.268;2023-05-07T05:49:55;11.23;;;7.83;;
11877;SDS011;5998;42.676;23.268;2023-05-07T05:52:22;7.90;;;6.67;;
11877;SDS011;5998;42.676;23.268;2023-05-07T05:54:48;10.03;;;7.27;;
11877;SDS011;5998;42.676;23.268;2023-05-07T05:57:17;8.23;;;7.30;;
11877;SDS011;5998;42.676;23.268;2023-05-07T05:59:44;9.23;;;7.70;;
11877;SDS011;5998;42.676;23.268;2023-05-07T06:02:11;9.50;;;7.73;;
11877;SDS011;5998;42.676;23.268;2023-05-07T06:04:38;8.20;;;7.00;;
11877;SDS011;5998;42.676;23.268;2023-05-07T06:07:04;8.00;;;7.17;;
11877;SDS011;5998;42.676;23.268;2023-05-07T06:09:31;9.83;;;7.77;;
11877;SDS011;5998;42.676;23.268;2023-05-07T06:11:58;8.90;;;7.37;;
11877;SDS011;5998;42.676;23.268;2023-05-07T06:14:26;8.53;;;7.27;;
11877;SDS011;5998;42.676;23.268;2023-05-07T06:16:52;8.23;;;7.43;;
11877;SDS011;5998;42.676;23.268;2023-05-07T06:19:18;10.87;;;7.13;;
11877;SDS011;5998;42.676;23.268;2023-05-07T06:21:48;7.80;;;7.00;;
11877;SDS011;5998;42.676;23.268;2023-05-07T06:24:14;7.53;;;6.60;;
11877;SDS011;5998;42.676;23.268;2023-05-07T06:26:41;8.03;;;7.00;;
11877;SDS011;5998;42.676;23.268;2023-05-07T06:29:07;9.03;;;6.70;;
11877;SDS011;5998;42.676;23.268;2023-05-07T06:31:35;7.13;;;6.43;;
11877;SDS011;5998;42.676;23.268;2023-05-07T06:34:01;8.20;;;6.97;;
11877;SDS011;5998;42.676;23.268;2023-05-07T06:36:28;7.43;;;6.70;;
11877;SDS011;5998;42.676;23.268;2023-05-07T06:38:54;8.33;;;6.37;;
11877;SDS011;5998;42.676;23.268;2023-05-07T06:41:21;12.40;;;6.67;;
11877;SDS011;5998;42.676;23.268;2023-05-07T06:43:47;7.87;;;6.60;;
11877;SDS011;5998;42.676;23.268;2023-05-07T06:46:14;6.70;;;6.10;;
11877;SDS011;5998;42.676;23.268;2023-05-07T06:48:42;11.13;;;6.73;;
11877;SDS011;5998;42.676;23.268;2023-05-07T06:51:08;8.83;;;6.93;;
11877;SDS011;5998;42.676;23.268;2023-05-07T06:53:35;8.40;;;6.80;;
11877;SDS011;5998;42.676;23.268;2023-05-07T06:56:01;9.30;;;6.23;;
11877;SDS011;5998;42.676;23.268;2023-05-07T06:58:28;6.83;;;6.20;;
11877;SDS011;5998;42.676;23.268;2023-05-07T07:00:54;6.63;;;5.70;;
11877;SDS011;5998;42.676;23.268;2023-05-07T07:03:21;7.50;;;6.80;;
11877;SDS011;5998;42.676;23.268;2023-05-07T07:05:48;10.07;;;6.70;;
11877;SDS011;5998;42.676;23.268;2023-05-07T07:08:17;7.93;;;6.30;;
11877;SDS011;5998;42.676;23.268;2023-05-07T07:10:43;7.03;;;6.33;;
11877;SDS011;5998;42.676;23.268;2023-05-07T07:13:10;8.13;;;6.90;;
11877;SDS011;5998;42.676;23.268;2023-05-07T07:15:36;7.50;;;6.20;;
11877;SDS011;5998;42.676;23.268;2023-05-07T07:18:03;8.03;;;6.03;;
11877;SDS011;5998;42.676;23.268;2023-05-07T07:20:30;9.27;;;6.70;;
11877;SDS011;5998;42.676;23.268;2023-05-07T07:22:58;6.53;;;5.53;;
11877;SDS011;5998;42.676;23.268;2023-05-07T07:25:25;7.30;;;6.47;;
11877;SDS011;5998;42.676;23.268;2023-05-07T07:27:51;7.20;;;5.20;;
11877;SDS011;5998;42.676;23.268;2023-05-07T07:30:18;6.97;;;5.37;;
11877;SDS011;5998;42.676;23.268;2023-05-07T07:32:44;6.60;;;5.50;;
11877;SDS011;5998;42.676;23.268;2023-05-07T07:35:10;11.37;;;5.73;;
11877;SDS011;5998;42.676;23.268;2023-05-07T07:37:37;6.93;;;5.47;;
11877;SDS011;5998;42.676;23.268;2023-05-07T07:40:05;6.70;;;5.57;;
11877;SDS011;5998;42.676;23.268;2023-05-07T07:42:32;6.10;;;5.47;;
11877;SDS011;5998;42.676;23.268;2023-05-07T07:44:58;7.07;;;5.30;;
11877;SDS011;5998;42.676;23.268;2023-05-07T07:47:25;7.27;;;5.90;;
11877;SDS011;5998;42.676;23.268;2023-05-07T07:49:51;11.07;;;6.30;;
11877;SDS011;5998;42.676;23.268;2023-05-07T07:52:18;8.63;;;7.83;;
11877;SDS011;5998;42.676;23.268;2023-05-07T07:54:44;8.87;;;7.30;;
11877;SDS011;5998;42.676;23.268;2023-05-07T07:57:12;9.17;;;8.20;;
11877;SDS011;5998;42.676;23.268;2023-05-07T07:59:39;8.93;;;8.00;;
11877;SDS011;5998;42.676;23.268;2023-05-07T08:02:08;11.83;;;8.30;;
11877;SDS011;5998;42.676;23.268;2023-05-07T08:04:34;8.90;;;8.10;;
11877;SDS011;5998;42.676;23.268;2023-05-07T08:07:02;9.07;;;8.17;;
11877;SDS011;5998;42.676;23.268;2023-05-07T08:09:28;10.60;;;8.60;;
11877;SDS011;5998;42.676;23.268;2023-05-07T08:11:55;16.00;;;8.87;;
11877;SDS011;5998;42.676;23.268;2023-05-07T08:14:23;10.67;;;8.10;;
11877;SDS011;5998;42.676;23.268;2023-05-07T08:16:49;8.67;;;7.77;;
11877;SDS011;5998;42.676;23.268;2023-05-07T08:19:15;7.97;;;7.17;;
11877;SDS011;5998;42.676;23.268;2023-05-07T08:21:42;9.07;;;8.10;;
11877;SDS011;5998;42.676;23.268;2023-05-07T08:24:08;10.40;;;7.17;;
11877;SDS011;5998;42.676;23.268;2023-05-07T08:26:35;8.23;;;7.17;;
11877;SDS011;5998;42.676;23.268;2023-05-07T08:29:04;9.80;;;8.10;;
11877;SDS011;5998;42.676;23.268;2023-05-07T08:31:32;10.30;;;8.10;;
11877;SDS011;5998;42.676;23.268;2023-05-07T08:33:58;9.20;;;7.80;;
11877;SDS011;5998;42.676;23.268;2023-05-07T08:36:25;9.40;;;7.47;;
11877;SDS011;5998;42.676;23.268;2023-05-07T08:38:51;8.40;;;7.23;;
11877;SDS011;5998;42.676;23.268;2023-05-07T08:41:18;7.97;;;7.20;;
11877;SDS011;5998;42.676;23.268;2023-05-07T08:43:46;9.07;;;7.27;;
11877;SDS011;5998;42.676;23.268;2023-05-07T08:46:15;7.20;;;5.73;;
11877;SDS011;5998;42.676;23.268;2023-05-07T08:48:44;8.33;;;6.53;;
11877;SDS011;5998;42.676;23.268;2023-05-07T08:51:12;7.50;;;5.10;;
11877;SDS011;5998;42.676;23.268;2023-05-07T08:53:38;6.90;;;6.20;;
11877;SDS011;5998;42.676;23.268;2023-05-07T08:56:06;7.57;;;5.73;;
11877;SDS011;5998;42.676;23.268;2023-05-07T08:58:33;8.40;;;5.80;;
11877;SDS011;5998;42.676;23.268;2023-05-07T09:00:59;5.97;;;5.40;;
11877;SDS011;5998;42.676;23.268;2023-05-07T09:03:27;6.83;;;6.17;;
11877;SDS011;5998;42.676;23.268;2023-05-07T09:05:55;6.57;;;5.77;;
11877;SDS011;5998;42.676;23.268;2023-05-07T09:08:24;5.83;;;5.33;;
11877;SDS011;5998;42.676;23.268;2023-05-07T09:10:51;8.47;;;6.20;;
11877;SDS011;5998;42.676;23.268;2023-05-07T09:13:17;5.20;;;4.70;;
11877;SDS011;5998;42.676;23.268;2023-05-07T09:15:44;6.40;;;5.80;;
11877;SDS011;5998;42.676;23.268;2023-05-07T09:18:10;6.60;;;5.90;;
11877;SDS011;5998;42.676;23.268;2023-05-07T09:20:38;6.23;;;5.67;;
11877;SDS011;5998;42.676;23.268;2023-05-07T09:23:06;6.83;;;5.07;;
11877;SDS011;5998;42.676;23.268;2023-05-07T09:25:33;7.87;;;5.30;;
11877;SDS011;5998;42.676;23.268;2023-05-07T09:28:00;6.63;;;5.23;;
11877;SDS011;5998;42.676;23.268;2023-05-07T09:30:27;5.30;;;4.80;;
11877;SDS011;5998;42.676;23.268;2023-05-07T09:32:54;3.70;;;3.40;;
11877;SDS011;5998;42.676;23.268;2023-05-07T09:35:20;5.97;;;4.10;;
11877;SDS011;5998;42.676;23.268;2023-05-07T09:37:49;5.03;;;4.53;;
11877;SDS011;5998;42.676;23.268;2023-05-07T09:40:23;7.83;;;5.00;;
11877;SDS011;5998;42.676;23.268;2023-05-07T09:42:50;5.90;;;5.30;;
11877;SDS011;5998;42.676;23.268;2023-05-07T09:45:21;6.97;;;3.97;;
11877;SDS011;5998;42.676;23.268;2023-05-07T09:47:47;6.03;;;4.33;;
11877;SDS011;5998;42.676;23.268;2023-05-07T09:50:15;5.27;;;4.83;;
11877;SDS011;5998;42.676;23.268;2023-05-07T09:52:42;5.70;;;5.00;;
11877;SDS011;5998;42.676;23.268;2023-05-07T09:55:10;6.03;;;4.90;;
11877;SDS011;5998;42.676;23.268;2023-05-07T09:57:38;6.53;;;4.97;;
11877;SDS011;5998;42.676;23.268;2023-05-07T10:00:05;5.57;;;4.57;;
11877;SDS011;5998;42.676;23.268;2023-05-07T10:02:33;8.10;;;5.43;;
11877;SDS011;5998;42.676;23.268;2023-05-07T10:05:01;7.37;;;4.37;;
11877;SDS011;5998;42.676;23.268;2023-05-07T10:07:28;6.73;;;4.87;;
11877;SDS011;5998;42.676;23.268;2023-05-07T10:09:55;5.17;;;4.53;;
11877;SDS011;5998;42.676;23.268;2023-05-07T10:12:21;5.13;;;4.63;;
11877;SDS011;5998;42.676;23.268;2023-05-07T10:14:49;6.60;;;5.17;;
11877;SDS011;5998;42.676;23.268;2023-05-07T10:17:16;7.43;;;5.13;;
11877;SDS011;5998;42.676;23.268;2023-05-07T10:19:43;7.87;;;4.20;;
11877;SDS011;5998;42.676;23.268;2023-05-07T10:22:10;4.10;;;3.73;;
11877;SDS011;5998;42.676;23.268;2023-05-07T10:24:37;5.07;;;3.73;;
11877;SDS011;5998;42.676;23.268;2023-05-07T10:27:04;4.10;;;3.70;;
11877;SDS011;5998;42.676;23.268;2023-05-07T10:29:33;5.63;;;4.50;;
11877;SDS011;5998;42.676;23.268;2023-05-07T10:32:12;4.70;;;3.70;;
11877;SDS011;5998;42.676;23.268;2023-05-07T10:34:41;7.33;;;3.77;;
11877;SDS011;5998;42.676;23.268;2023-05-07T10:37:09;4.10;;;3.80;;
11877;SDS011;5998;42.676;23.268;2023-05-07T10:39:36;6.70;;;4.30;;
11877;SDS011;5998;42.676;23.268;2023-05-07T10:42:08;3.83;;;3.50;;
11877;SDS011;5998;42.676;23.268;2023-05-07T10:44:35;6.43;;;3.50;;
11877;SDS011;5998;42.676;23.268;2023-05-07T10:47:09;4.43;;;3.63;;
11877;SDS011;5998;42.676;23.268;2023-05-07T10:49:38;4.07;;;3.30;;
11877;SDS011;5998;42.676;23.268;2023-05-07T10:52:24;4.07;;;3.30;;
11877;SDS011;5998;42.676;23.268;2023-05-07T10:55:19;4.17;;;3.57;;
11877;SDS011;5998;42.676;23.268;2023-05-07T10:57:46;3.70;;;3.30;;
11877;SDS011;5998;42.676;23.268;2023-05-07T11:03:06;3.63;;;3.37;;
11877;SDS011;5998;42.676;23.268;2023-05-07T11:05:34;3.70;;;3.10;;
11877;SDS011;5998;42.676;23.268;2023-05-07T11:08:02;3.23;;;2.93;;
11877;SDS011;5998;42.676;23.268;2023-05-07T11:16:13;3.77;;;3.20;;
11877;SDS011;5998;42.676;23.268;2023-05-07T11:18:46;4.77;;;3.23;;
11877;SDS011;5998;42.676;23.268;2023-05-07T11:21:14;6.37;;;3.20;;
11877;SDS011;5998;42.676;23.268;2023-05-07T11:24:00;3.63;;;3.10;;
11877;SDS011;5998;42.676;23.268;2023-05-07T11:26:28;3.10;;;2.80;;
11877;SDS011;5998;42.676;23.268;2023-05-07T11:28:55;3.37;;;3.10;;
11877;SDS011;5998;42.676;23.268;2023-05-07T11:31:22;4.77;;;2.90;;
11877;SDS011;5998;42.676;23.268;2023-05-07T11:33:49;3.20;;;2.90;;
11877;SDS011;5998;42.676;23.268;2023-05-07T11:36:17;3.50;;;3.20;;
11877;SDS011;5998;42.676;23.268;2023-05-07T11:38:44;3.75;;;3.45;;
11877;SDS011;5998;42.676;23.268;2023-05-07T11:41:10;4.10;;;3.23;;
11877;SDS011;5998;42.676;23.268;2023-05-07T11:43:37;3.67;;;3.20;;
11877;SDS011;5998;42.676;23.268;2023-05-07T11:46:05;3.67;;;3.37;;
11877;SDS011;5998;42.676;23.268;2023-05-07T11:48:32;3.27;;;3.00;;
11877;SDS011;5998;42.676;23.268;2023-05-07T11:51:00;7.37;;;4.00;;
11877;SDS011;5998;42.676;23.268;2023-05-07T11:53:34;3.57;;;3.27;;
11877;SDS011;5998;42.676;23.268;2023-05-07T11:56:05;3.63;;;3.33;;
11877;SDS011;5998;42.676;23.268;2023-05-07T11:58:32;3.33;;;3.13;;
11877;SDS011;5998;42.676;23.268;2023-05-07T12:00:58;4.03;;;3.20;;
11877;SDS011;5998;42.676;23.268;2023-05-07T12:03:24;4.40;;;3.00;;
11877;SDS011;5998;42.676;23.268;2023-05-07T12:05:51;3.80;;;3.00;;
11877;SDS011;5998;42.676;23.268;2023-05-07T12:08:18;4.67;;;3.10;;
11877;SDS011;5998;42.676;23.268;2023-05-07T12:10:46;3.10;;;2.90;;
11877;SDS011;5998;42.676;23.268;2023-05-07T12:13:14;3.27;;;2.97;;
11877;SDS011;5998;42.676;23.268;2023-05-07T12:15:40;4.67;;;3.00;;
11877;SDS011;5998;42.676;23.268;2023-05-07T12:18:07;2.90;;;2.70;;
11877;SDS011;5998;42.676;23.268;2023-05-07T12:20:33;3.63;;;3.30;;
11877;SDS011;5998;42.676;23.268;2023-05-07T12:23:00;5.33;;;3.30;;
11877;SDS011;5998;42.676;23.268;2023-05-07T12:25:29;6.17;;;3.37;;
11877;SDS011;5998;42.676;23.268;2023-05-07T12:27:57;3.67;;;3.00;;
11877;SDS011;5998;42.676;23.268;2023-05-07T12:30:24;3.53;;;3.00;;
11877;SDS011;5998;42.676;23.268;2023-05-07T12:32:52;4.07;;;2.83;;
11877;SDS011;5998;42.676;23.268;2023-05-07T12:35:25;3.17;;;2.97;;
11877;SDS011;5998;42.676;23.268;2023-05-07T12:37:54;3.38;;;3.10;;
11877;SDS011;5998;42.676;23.268;2023-05-07T12:40:20;3.63;;;2.92;;
11877;SDS011;5998;42.676;23.268;2023-05-07T12:42:47;3.10;;;2.90;;
11877;SDS011;5998;42.676;23.268;2023-05-07T12:45:20;3.08;;;2.75;;
11877;SDS011;5998;42.676;23.268;2023-05-07T12:47:47;3.03;;;2.83;;
11877;SDS011;5998;42.676;23.268;2023-05-07T12:50:13;3.00;;;2.80;;
11877;SDS011;5998;42.676;23.268;2023-05-07T12:52:40;4.00;;;3.15;;
11877;SDS011;5998;42.676;23.268;2023-05-07T12:55:07;3.25;;;2.83;;
11877;SDS011;5998;42.676;23.268;2023-05-07T12:57:37;2.80;;;2.60;;
11877;SDS011;5998;42.676;23.268;2023-05-07T13:00:04;3.75;;;2.97;;
11877;SDS011;5998;42.676;23.268;2023-05-07T13:02:33;2.95;;;2.50;;
11877;SDS011;5998;42.676;23.268;2023-05-07T13:05:00;2.88;;;2.58;;
11877;SDS011;5998;42.676;23.268;2023-05-07T13:07:27;3.60;;;3.28;;
11877;SDS011;5998;42.676;23.268;2023-05-07T13:09:53;3.35;;;3.00;;
11877;SDS011;5998;42.676;23.268;2023-05-07T13:12:20;3.15;;;2.90;;
11877;SDS011;5998;42.676;23.268;2023-05-07T13:14:46;4.60;;;3.23;;
11877;SDS011;5998;42.676;23.268;2023-05-07T13:17:13;3.83;;;3.10;;
11877;SDS011;5998;42.676;23.268;2023-05-07T13:19:40;3.50;;;2.80;;
11877;SDS011;5998;42.676;23.268;2023-05-07T13:22:07;8.70;;;2.97;;
11877;SDS011;5998;42.676;23.268;2023-05-07T13:24:33;3.00;;;2.80;;
11877;SDS011;5998;42.676;23.268;2023-05-07T13:27:00;4.03;;;2.80;;
11877;SDS011;5998;42.676;23.268;2023-05-07T13:29:26;3.30;;;3.00;;
11877;SDS011;5998;42.676;23.268;2023-05-07T13:31:55;3.57;;;2.93;;
11877;SDS011;5998;42.676;23.268;2023-05-07T13:34:22;4.83;;;3.00;;
11877;SDS011;5998;42.676;23.268;2023-05-07T13:36:49;3.43;;;3.03;;
11877;SDS011;5998;42.676;23.268;2023-05-07T13:39:16;3.77;;;2.97;;
11877;SDS011;5998;42.676;23.268;2023-05-07T13:41:42;3.10;;;2.80;;
11877;SDS011;5998;42.676;23.268;2023-05-07T13:44:09;3.00;;;2.60;;
11877;SDS011;5998;42.676;23.268;2023-05-07T13:46:36;3.00;;;2.80;;
11877;SDS011;5998;42.676;23.268;2023-05-07T13:49:02;4.00;;;2.60;;
11877;SDS011;5998;42.676;23.268;2023-05-07T13:51:29;3.57;;;2.67;;
11877;SDS011;5998;42.676;23.268;2023-05-07T13:53:57;3.10;;;2.70;;
11877;SDS011;5998;42.676;23.268;2023-05-07T13:56:24;3.23;;;3.00;;
11877;SDS011;5998;42.676;23.268;2023-05-07T13:58:51;6.67;;;3.40;;
11877;SDS011;5998;42.676;23.268;2023-05-07T14:01:17;2.90;;;2.67;;
11877;SDS011;5998;42.676;23.268;2023-05-07T14:03:43;3.50;;;3.10;;
11877;SDS011;5998;42.676;23.268;2023-05-07T14:06:10;3.00;;;2.80;;
11877;SDS011;5998;42.676;23.268;2023-05-07T14:08:36;2.97;;;2.70;;
11877;SDS011;5998;42.676;23.268;2023-05-07T14:11:04;5.30;;;3.10;;
11877;SDS011;5998;42.676;23.268;2023-05-07T14:13:31;3.40;;;3.10;;
11877;SDS011;5998;42.676;23.268;2023-05-07T14:15:59;3.10;;;2.80;;
11877;SDS011;5998;42.676;23.268;2023-05-07T14:18:25;5.00;;;2.90;;
11877;SDS011;5998;42.676;23.268;2023-05-07T14:20:53;3.57;;;2.90;;
11877;SDS011;5998;42.676;23.268;2023-05-07T14:23:20;4.77;;;2.80;;
11877;SDS011;5998;42.676;23.268;2023-05-07T14:25:51;3.00;;;2.80;;
11877;SDS011;5998;42.676;23.268;2023-05-07T14:28:19;3.20;;;2.60;;
11877;SDS011;5998;42.676;23.268;2023-05-07T14:30:46;3.20;;;2.90;;
11877;SDS011;5998;42.676;23.268;2023-05-07T14:33:12;2.70;;;2.43;;
11877;SDS011;5998;42.676;23.268;2023-05-07T14:35:39;2.83;;;2.63;;
11877;SDS011;5998;42.676;23.268;2023-05-07T14:38:05;3.00;;;2.70;;
11877;SDS011;5998;42.676;23.268;2023-05-07T14:40:32;3.30;;;2.70;;
11877;SDS011;5998;42.676;23.268;2023-05-07T14:42:58;4.73;;;2.90;;
11877;SDS011;5998;42.676;23.268;2023-05-07T14:45:26;4.20;;;2.80;;
11877;SDS011;5998;42.676;23.268;2023-05-07T14:47:53;3.50;;;2.57;;
11877;SDS011;5998;42.676;23.268;2023-05-07T14:50:19;3.03;;;2.83;;
11877;SDS011;5998;42.676;23.268;2023-05-07T14:52:45;3.83;;;3.20;;
11877;SDS011;5998;42.676;23.268;2023-05-07T14:55:12;3.37;;;3.07;;